CGXAR CYBW-CZPC
Flight info
| Callsign | CGXAR |
|---|---|
| Flight time | 0h 44m |
| Altitude | 9000 |
| Route | GADKI DCT VOBUK |
| Aircraft | B60T/L-SDFGRY/C |
Departure
| Time | 2026-04-28 23:40 |
|---|---|
| Airport | Calgary / Springbank Airport (CYBW) |
Arrival
| Time | 2026-04-29 00:25 |
|---|---|
| Airport | Pincher Creek Airport (CZPC) |
| Time | Latitude | Longitude | Altitude | Speed | Heading |
|---|---|---|---|---|---|
| 2026-04-28 23:21 | 51.10077 | -114.37511 | 3941 ft | 0 kts | 342° |
| 2026-04-28 23:36 | 51.10078 | -114.37511 | 3941 ft | 1 kts | 342° |
| 2026-04-28 23:36 | 51.10100 | -114.37535 | 3941 ft | 8 kts | 313° |
| 2026-04-28 23:37 | 51.10102 | -114.37599 | 3941 ft | 10 kts | 206° |
| 2026-04-28 23:37 | 51.10015 | -114.37603 | 3941 ft | 15 kts | 181° |
| 2026-04-28 23:37 | 51.09937 | -114.37601 | 3942 ft | 5 kts | 181° |
| 2026-04-28 23:37 | 51.09881 | -114.37607 | 3943 ft | 14 kts | 200° |
| 2026-04-28 23:38 | 51.09855 | -114.37651 | 3943 ft | 0 kts | 259° |
| 2026-04-28 23:38 | 51.09856 | -114.37700 | 3943 ft | 9 kts | 270° |
| 2026-04-28 23:38 | 51.09856 | -114.37710 | 3943 ft | 0 kts | 268° |
| 2026-04-28 23:38 | 51.09856 | -114.37718 | 3943 ft | 5 kts | 267° |
| 2026-04-28 23:39 | 51.09855 | -114.37739 | 3943 ft | 1 kts | 267° |
| 2026-04-28 23:39 | 51.09855 | -114.37843 | 3942 ft | 9 kts | 284° |
| 2026-04-28 23:39 | 51.10000 | -114.37877 | 3942 ft | 47 kts | 359° |
| 2026-04-28 23:39 | 51.10577 | -114.37866 | 3968 ft | 113 kts | 359° |
| 2026-04-28 23:40 | 51.11475 | -114.37747 | 4294 ft | 141 kts | 357° |
| 2026-04-28 23:40 | 51.12490 | -114.37591 | 5055 ft | 148 kts | 4° |
| 2026-04-28 23:40 | 51.13503 | -114.37136 | 5706 ft | 156 kts | 28° |
| 2026-04-28 23:40 | 51.14170 | -114.35850 | 6518 ft | 156 kts | 68° |
| 2026-04-28 23:41 | 51.14135 | -114.34022 | 6804 ft | 190 kts | 110° |
| 2026-04-28 23:41 | 51.13229 | -114.32371 | 6919 ft | 209 kts | 150° |
| 2026-04-28 23:41 | 51.11868 | -114.31486 | 7045 ft | 214 kts | 162° |
| 2026-04-28 23:41 | 51.10448 | -114.30728 | 7250 ft | 214 kts | 162° |
| 2026-04-28 23:42 | 51.09066 | -114.30001 | 7622 ft | 202 kts | 162° |
| 2026-04-28 23:42 | 51.07825 | -114.29349 | 7909 ft | 182 kts | 163° |
| 2026-04-28 23:42 | 51.06652 | -114.28729 | 8088 ft | 174 kts | 162° |
| 2026-04-28 23:42 | 51.05507 | -114.28156 | 8240 ft | 171 kts | 167° |
| 2026-04-28 23:43 | 51.04372 | -114.27583 | 8408 ft | 171 kts | 155° |
| 2026-04-28 23:43 | 51.03425 | -114.26458 | 8580 ft | 170 kts | 135° |
| 2026-04-28 23:43 | 51.02601 | -114.25130 | 8896 ft | 160 kts | 133° |
| 2026-04-28 23:43 | 51.01783 | -114.23824 | 9004 ft | 175 kts | 134° |
| 2026-04-28 23:44 | 51.00903 | -114.22448 | 9016 ft | 184 kts | 135° |
| 2026-04-28 23:44 | 50.99972 | -114.20996 | 9023 ft | 191 kts | 135° |
| 2026-04-28 23:44 | 50.99008 | -114.19494 | 9026 ft | 197 kts | 135° |
| 2026-04-28 23:44 | 50.98025 | -114.17962 | 9030 ft | 199 kts | 135° |
| 2026-04-28 23:45 | 50.97026 | -114.16413 | 9023 ft | 206 kts | 135° |
| 2026-04-28 23:45 | 50.95946 | -114.14721 | 9026 ft | 230 kts | 135° |
| 2026-04-28 23:45 | 50.94763 | -114.12885 | 9026 ft | 241 kts | 135° |
| 2026-04-28 23:45 | 50.93609 | -114.11093 | 9024 ft | 222 kts | 135° |
| 2026-04-28 23:46 | 50.92538 | -114.09423 | 9014 ft | 211 kts | 135° |
| 2026-04-28 23:46 | 50.91505 | -114.07812 | 9010 ft | 206 kts | 135° |
| 2026-04-28 23:46 | 50.90466 | -114.06196 | 9016 ft | 212 kts | 135° |
| 2026-04-28 23:46 | 50.89400 | -114.04545 | 9022 ft | 216 kts | 135° |
| 2026-04-28 23:47 | 50.88325 | -114.02880 | 9026 ft | 216 kts | 136° |
| 2026-04-28 23:47 | 50.87250 | -114.01209 | 9029 ft | 217 kts | 135° |
| 2026-04-28 23:47 | 50.86171 | -113.99539 | 9031 ft | 218 kts | 136° |
| 2026-04-28 23:47 | 50.85087 | -113.97863 | 9038 ft | 218 kts | 136° |
| 2026-04-28 23:48 | 50.84004 | -113.96187 | 9046 ft | 218 kts | 135° |
| 2026-04-28 23:48 | 50.82939 | -113.94538 | 9042 ft | 217 kts | 136° |
| 2026-04-28 23:48 | 50.81858 | -113.92866 | 9044 ft | 217 kts | 136° |
| 2026-04-28 23:48 | 50.80777 | -113.91198 | 9049 ft | 219 kts | 136° |
| 2026-04-28 23:49 | 50.79665 | -113.89484 | 9056 ft | 227 kts | 136° |
| 2026-04-28 23:49 | 50.78525 | -113.87729 | 9058 ft | 230 kts | 136° |
| 2026-04-28 23:49 | 50.77374 | -113.85955 | 9066 ft | 232 kts | 136° |
| 2026-04-28 23:49 | 50.76214 | -113.84169 | 9064 ft | 234 kts | 136° |
| 2026-04-28 23:50 | 50.75044 | -113.82373 | 9056 ft | 235 kts | 136° |
| 2026-04-28 23:50 | 50.73872 | -113.80569 | 9055 ft | 236 kts | 136° |
| 2026-04-28 23:50 | 50.72698 | -113.78765 | 9053 ft | 235 kts | 136° |
| 2026-04-28 23:50 | 50.71526 | -113.76966 | 9063 ft | 235 kts | 136° |
| 2026-04-28 23:51 | 50.70353 | -113.75167 | 9056 ft | 235 kts | 136° |
| 2026-04-28 23:51 | 50.69185 | -113.73377 | 9053 ft | 234 kts | 136° |
| 2026-04-28 23:51 | 50.68015 | -113.71584 | 9048 ft | 234 kts | 136° |
| 2026-04-28 23:51 | 50.66836 | -113.69806 | 9054 ft | 235 kts | 140° |
| 2026-04-28 23:52 | 50.65429 | -113.68545 | 9061 ft | 233 kts | 162° |
| 2026-04-28 23:52 | 50.63890 | -113.67757 | 9060 ft | 233 kts | 163° |
| 2026-04-28 23:52 | 50.62356 | -113.66943 | 9053 ft | 232 kts | 162° |
| 2026-04-28 23:52 | 50.60827 | -113.66123 | 9053 ft | 232 kts | 163° |
| 2026-04-28 23:53 | 50.59332 | -113.65341 | 9049 ft | 228 kts | 163° |
| 2026-04-28 23:53 | 50.57814 | -113.64546 | 9041 ft | 226 kts | 163° |
| 2026-04-28 23:53 | 50.56343 | -113.63772 | 9044 ft | 226 kts | 163° |
| 2026-04-28 23:53 | 50.54845 | -113.62983 | 9036 ft | 226 kts | 163° |
| 2026-04-28 23:54 | 50.53352 | -113.62201 | 9031 ft | 226 kts | 163° |
| 2026-04-28 23:54 | 50.51858 | -113.61418 | 9036 ft | 225 kts | 163° |
| 2026-04-28 23:54 | 50.50369 | -113.60635 | 9035 ft | 226 kts | 163° |
| 2026-04-28 23:54 | 50.48873 | -113.59852 | 9038 ft | 227 kts | 163° |
| 2026-04-28 23:55 | 50.47379 | -113.59073 | 9036 ft | 226 kts | 162° |
| 2026-04-28 23:55 | 50.45894 | -113.58291 | 9035 ft | 225 kts | 163° |
| 2026-04-28 23:55 | 50.44405 | -113.57516 | 9041 ft | 226 kts | 163° |
| 2026-04-28 23:55 | 50.42915 | -113.56740 | 9033 ft | 225 kts | 163° |
| 2026-04-28 23:56 | 50.41432 | -113.55965 | 9038 ft | 225 kts | 163° |
| 2026-04-28 23:56 | 50.39945 | -113.55191 | 9037 ft | 223 kts | 163° |
| 2026-04-28 23:56 | 50.38547 | -113.54459 | 9029 ft | 202 kts | 163° |
| 2026-04-28 23:56 | 50.37252 | -113.53777 | 9025 ft | 192 kts | 163° |
| 2026-04-28 23:57 | 50.36004 | -113.53126 | 9033 ft | 187 kts | 163° |
| 2026-04-28 23:57 | 50.34784 | -113.52491 | 9036 ft | 183 kts | 163° |
| 2026-04-28 23:57 | 50.33575 | -113.51862 | 9033 ft | 183 kts | 163° |
| 2026-04-28 23:57 | 50.32362 | -113.51232 | 9028 ft | 183 kts | 163° |
| 2026-04-28 23:58 | 50.31163 | -113.50608 | 9033 ft | 181 kts | 162° |
| 2026-04-28 23:58 | 50.29985 | -113.49992 | 9032 ft | 181 kts | 163° |
| 2026-04-28 23:58 | 50.28791 | -113.49376 | 9026 ft | 181 kts | 163° |
| 2026-04-28 23:58 | 50.27535 | -113.48729 | 9039 ft | 202 kts | 163° |
| 2026-04-28 23:59 | 50.26134 | -113.48007 | 9050 ft | 220 kts | 163° |
| 2026-04-28 23:59 | 50.24646 | -113.47242 | 9047 ft | 229 kts | 162° |
| 2026-04-28 23:59 | 50.23122 | -113.46452 | 9058 ft | 233 kts | 162° |
| 2026-04-28 23:59 | 50.21583 | -113.45652 | 9044 ft | 232 kts | 162° |
| 2026-04-29 00:00 | 50.20049 | -113.44861 | 9046 ft | 233 kts | 162° |
| 2026-04-29 00:00 | 50.18511 | -113.44067 | 9042 ft | 232 kts | 162° |
| 2026-04-29 00:00 | 50.16973 | -113.43272 | 9042 ft | 232 kts | 162° |
| 2026-04-29 00:00 | 50.15454 | -113.42489 | 9037 ft | 232 kts | 162° |
| 2026-04-29 00:01 | 50.13925 | -113.41697 | 9036 ft | 232 kts | 162° |
| 2026-04-29 00:01 | 50.12389 | -113.40906 | 9028 ft | 233 kts | 163° |
| 2026-04-29 00:01 | 50.10850 | -113.40116 | 9031 ft | 233 kts | 162° |
| 2026-04-29 00:01 | 50.09309 | -113.39323 | 9027 ft | 233 kts | 163° |
| 2026-04-29 00:02 | 50.07775 | -113.38534 | 9033 ft | 232 kts | 162° |
| 2026-04-29 00:02 | 50.06243 | -113.37746 | 9034 ft | 232 kts | 163° |
| 2026-04-29 00:02 | 50.04707 | -113.36958 | 9039 ft | 232 kts | 162° |
| 2026-04-29 00:02 | 50.03177 | -113.36171 | 9040 ft | 232 kts | 163° |
| 2026-04-29 00:03 | 50.01639 | -113.35383 | 9034 ft | 232 kts | 162° |
| 2026-04-29 00:03 | 50.00109 | -113.34598 | 9031 ft | 231 kts | 162° |
| 2026-04-29 00:03 | 49.98601 | -113.33826 | 9033 ft | 231 kts | 162° |
| 2026-04-29 00:03 | 49.97069 | -113.33043 | 9031 ft | 231 kts | 163° |
| 2026-04-29 00:04 | 49.95542 | -113.32263 | 9032 ft | 231 kts | 163° |
| 2026-04-29 00:04 | 49.94020 | -113.31485 | 9029 ft | 230 kts | 163° |
| 2026-04-29 00:04 | 49.92499 | -113.30707 | 9033 ft | 230 kts | 163° |
| 2026-04-29 00:04 | 49.90973 | -113.29925 | 9034 ft | 231 kts | 162° |
| 2026-04-29 00:05 | 49.89442 | -113.29145 | 9030 ft | 232 kts | 163° |
| 2026-04-29 00:05 | 49.87911 | -113.28365 | 9031 ft | 231 kts | 163° |
| 2026-04-29 00:05 | 49.86384 | -113.27586 | 9032 ft | 231 kts | 163° |
| 2026-04-29 00:05 | 49.85373 | -113.27073 | 9025 ft | 231 kts | 163° |
| 2026-04-29 00:06 | 49.83844 | -113.26294 | 9029 ft | 232 kts | 163° |
| 2026-04-29 00:06 | 49.82312 | -113.25515 | 9030 ft | 231 kts | 163° |
| 2026-04-29 00:06 | 49.80784 | -113.24739 | 9031 ft | 231 kts | 163° |
| 2026-04-29 00:06 | 49.79251 | -113.23959 | 9026 ft | 232 kts | 163° |
| 2026-04-29 00:07 | 49.77719 | -113.23180 | 9024 ft | 232 kts | 163° |
| 2026-04-29 00:07 | 49.76181 | -113.22404 | 9019 ft | 232 kts | 163° |
| 2026-04-29 00:07 | 49.74613 | -113.21936 | 9017 ft | 229 kts | 182° |
| 2026-04-29 00:07 | 49.73054 | -113.22294 | 9019 ft | 226 kts | 200° |
| 2026-04-29 00:08 | 49.71662 | -113.23375 | 9024 ft | 223 kts | 219° |
| 2026-04-29 00:08 | 49.70578 | -113.25047 | 9028 ft | 219 kts | 237° |
| 2026-04-29 00:08 | 49.69892 | -113.27091 | 9036 ft | 217 kts | 252° |
| 2026-04-29 00:08 | 49.69376 | -113.29278 | 9045 ft | 217 kts | 252° |
| 2026-04-29 00:09 | 49.68849 | -113.31418 | 9033 ft | 200 kts | 252° |
| 2026-04-29 00:09 | 49.68377 | -113.33335 | 8834 ft | 189 kts | 252° |
| 2026-04-29 00:09 | 49.67916 | -113.35248 | 8407 ft | 190 kts | 252° |
| 2026-04-29 00:09 | 49.67453 | -113.37162 | 8023 ft | 190 kts | 252° |
| 2026-04-29 00:10 | 49.66991 | -113.39067 | 7601 ft | 191 kts | 252° |
| 2026-04-29 00:10 | 49.66533 | -113.40951 | 7118 ft | 183 kts | 252° |
| 2026-04-29 00:10 | 49.66091 | -113.42767 | 6671 ft | 179 kts | 252° |
| 2026-04-29 00:10 | 49.65656 | -113.44553 | 6214 ft | 177 kts | 252° |
| 2026-04-29 00:11 | 49.65234 | -113.46289 | 6040 ft | 165 kts | 252° |
| 2026-04-29 00:11 | 49.64836 | -113.47895 | 6027 ft | 155 kts | 252° |
| 2026-04-29 00:11 | 49.64046 | -113.51157 | 6053 ft | 198 kts | 252° |
| 2026-04-29 00:12 | 49.63532 | -113.53282 | 6050 ft | 209 kts | 252° |
| 2026-04-29 00:12 | 49.63033 | -113.55326 | 6040 ft | 200 kts | 251° |
| 2026-04-29 00:12 | 49.62542 | -113.57296 | 6034 ft | 194 kts | 251° |
| 2026-04-29 00:12 | 49.62068 | -113.59226 | 6032 ft | 192 kts | 252° |
| 2026-04-29 00:13 | 49.61593 | -113.61173 | 6027 ft | 196 kts | 251° |
| 2026-04-29 00:13 | 49.61103 | -113.63157 | 6027 ft | 199 kts | 251° |
| 2026-04-29 00:13 | 49.60613 | -113.65162 | 6022 ft | 200 kts | 251° |
| 2026-04-29 00:13 | 49.60119 | -113.67169 | 6028 ft | 201 kts | 252° |
| 2026-04-29 00:14 | 49.59621 | -113.69188 | 6019 ft | 201 kts | 252° |
| 2026-04-29 00:14 | 49.59145 | -113.71119 | 6023 ft | 177 kts | 252° |
| 2026-04-29 00:14 | 49.58734 | -113.72766 | 6012 ft | 155 kts | 252° |
| 2026-04-29 00:14 | 49.58359 | -113.74275 | 6002 ft | 147 kts | 253° |
| 2026-04-29 00:15 | 49.57999 | -113.75733 | 5997 ft | 143 kts | 252° |
| 2026-04-29 00:15 | 49.57650 | -113.77145 | 6000 ft | 139 kts | 253° |
| 2026-04-29 00:15 | 49.57308 | -113.78534 | 5995 ft | 138 kts | 253° |
| 2026-04-29 00:15 | 49.56966 | -113.79910 | 5994 ft | 138 kts | 253° |
| 2026-04-29 00:16 | 49.56631 | -113.81262 | 5997 ft | 137 kts | 253° |
| 2026-04-29 00:16 | 49.56288 | -113.82654 | 5994 ft | 135 kts | 252° |
| 2026-04-29 00:16 | 49.55953 | -113.84001 | 6000 ft | 138 kts | 253° |
| 2026-04-29 00:16 | 49.55610 | -113.85375 | 6001 ft | 137 kts | 253° |
| 2026-04-29 00:17 | 49.55270 | -113.86748 | 6000 ft | 137 kts | 252° |
| 2026-04-29 00:17 | 49.54929 | -113.88112 | 5989 ft | 137 kts | 251° |
| 2026-04-29 00:17 | 49.54578 | -113.89517 | 5990 ft | 142 kts | 253° |
| 2026-04-29 00:17 | 49.54083 | -113.90840 | 5987 ft | 148 kts | 223° |
| 2026-04-29 00:18 | 49.53134 | -113.91446 | 5989 ft | 160 kts | 187° |
| 2026-04-29 00:18 | 49.51943 | -113.90973 | 6010 ft | 194 kts | 146° |
| 2026-04-29 00:18 | 49.51087 | -113.89301 | 6021 ft | 208 kts | 108° |
| 2026-04-29 00:18 | 49.50943 | -113.87076 | 6009 ft | 214 kts | 84° |
| 2026-04-29 00:19 | 49.51085 | -113.84779 | 6009 ft | 217 kts | 72° |
| 2026-04-29 00:19 | 49.51801 | -113.82759 | 6007 ft | 216 kts | 50° |
| 2026-04-29 00:19 | 49.52756 | -113.81008 | 6008 ft | 217 kts | 49° |
| 2026-04-29 00:19 | 49.53333 | -113.78877 | 6013 ft | 221 kts | 84° |
| 2026-04-29 00:20 | 49.52994 | -113.76580 | 6018 ft | 223 kts | 120° |
| 2026-04-29 00:20 | 49.51992 | -113.75212 | 6002 ft | 174 kts | 162° |
| 2026-04-29 00:20 | 49.50874 | -113.75268 | 5998 ft | 158 kts | 208° |
| 2026-04-29 00:20 | 49.50182 | -113.76439 | 6008 ft | 147 kts | 247° |
| 2026-04-29 00:21 | 49.49809 | -113.77885 | 5998 ft | 142 kts | 263° |
| 2026-04-29 00:21 | 49.49718 | -113.79377 | 5996 ft | 138 kts | 278° |
| 2026-04-29 00:21 | 49.50023 | -113.80773 | 6005 ft | 140 kts | 295° |
| 2026-04-29 00:21 | 49.50279 | -113.82213 | 6017 ft | 139 kts | 282° |
| 2026-04-29 00:22 | 49.50464 | -113.83726 | 5848 ft | 150 kts | 282° |
| 2026-04-29 00:22 | 49.50636 | -113.85328 | 5543 ft | 154 kts | 282° |
| 2026-04-29 00:22 | 49.50807 | -113.86965 | 5222 ft | 156 kts | 282° |
| 2026-04-29 00:22 | 49.50983 | -113.88617 | 4930 ft | 157 kts | 281° |
| 2026-04-29 00:23 | 49.51154 | -113.90267 | 4608 ft | 155 kts | 281° |
| 2026-04-29 00:23 | 49.51324 | -113.91900 | 4289 ft | 154 kts | 283° |
| 2026-04-29 00:23 | 49.51492 | -113.93493 | 4089 ft | 144 kts | 282° |
| 2026-04-29 00:23 | 49.51726 | -113.94836 | 4087 ft | 124 kts | 289° |
| 2026-04-29 00:24 | 49.51934 | -113.96071 | 4030 ft | 111 kts | 282° |
| 2026-04-29 00:24 | 49.52009 | -113.97221 | 3966 ft | 94 kts | 280° |
| 2026-04-29 00:24 | 49.52042 | -113.98293 | 3897 ft | 100 kts | 274° |
| 2026-04-29 00:24 | 49.52043 | -113.99294 | 3882 ft | 84 kts | 278° |
| 2026-04-29 00:25 | 49.52053 | -113.99899 | 3887 ft | 16 kts | 271° |
| 2026-04-29 00:25 | 49.52076 | -114.00023 | 3887 ft | 15 kts | 343° |
| 2026-04-29 00:25 | 49.52158 | -114.00033 | 3888 ft | 15 kts | 352° |
| 2026-04-29 00:25 | 49.52215 | -113.99956 | 3887 ft | 19 kts | 129° |
| 2026-04-29 00:26 | 49.52196 | -113.99970 | 3887 ft | 0 kts | 353° |